sensor_id;sensor_type;location;lat;lon;timestamp;temperature;humidity
24152;DHT22;12311;50.866;4.332;2023-05-14T00:00:50;13.30;99.90
24152;DHT22;12311;50.866;4.332;2023-05-14T00:03:16;13.20;99.90
24152;DHT22;12311;50.866;4.332;2023-05-14T00:05:42;13.20;99.90
24152;DHT22;12311;50.866;4.332;2023-05-14T00:08:07;13.20;99.90
24152;DHT22;12311;50.866;4.332;2023-05-14T00:10:33;13.20;99.90
24152;DHT22;12311;50.866;4.332;2023-05-14T00:12:59;13.20;99.90
24152;DHT22;12311;50.866;4.332;2023-05-14T00:15:25;13.20;99.90
24152;DHT22;12311;50.866;4.332;2023-05-14T00:17:50;13.10;99.90
24152;DHT22;12311;50.866;4.332;2023-05-14T00:20:16;13.10;99.90
24152;DHT22;12311;50.866;4.332;2023-05-14T00:22:41;13.20;99.90
24152;DHT22;12311;50.866;4.332;2023-05-14T00:25:08;13.20;99.90
24152;DHT22;12311;50.866;4.332;2023-05-14T00:27:34;13.10;99.90
24152;DHT22;12311;50.866;4.332;2023-05-14T00:30:03;13.10;99.90
24152;DHT22;12311;50.866;4.332;2023-05-14T00:32:30;13.20;99.90
24152;DHT22;12311;50.866;4.332;2023-05-14T00:34:56;13.10;99.90
24152;DHT22;12311;50.866;4.332;2023-05-14T00:37:22;13.10;99.90
24152;DHT22;12311;50.866;4.332;2023-05-14T00:39:48;13.10;99.90
24152;DHT22;12311;50.866;4.332;2023-05-14T00:42:13;13.10;99.90
24152;DHT22;12311;50.866;4.332;2023-05-14T00:44:39;13.00;99.90
24152;DHT22;12311;50.866;4.332;2023-05-14T00:47:05;13.00;99.90
24152;DHT22;12311;50.866;4.332;2023-05-14T00:49:31;13.00;99.90
24152;DHT22;12311;50.866;4.332;2023-05-14T00:51:57;13.10;99.90
24152;DHT22;12311;50.866;4.332;2023-05-14T00:54:25;13.10;99.90
24152;DHT22;12311;50.866;4.332;2023-05-14T00:56:52;13.10;99.90
24152;DHT22;12311;50.866;4.332;2023-05-14T00:59:18;13.10;99.90
24152;DHT22;12311;50.866;4.332;2023-05-14T01:01:44;13.10;99.90
24152;DHT22;12311;50.866;4.332;2023-05-14T01:04:10;13.10;99.90
24152;DHT22;12311;50.866;4.332;2023-05-14T01:09:48;13.10;99.90
24152;DHT22;12311;50.866;4.332;2023-05-14T01:15:08;13.10;99.90
24152;DHT22;12311;50.866;4.332;2023-05-14T01:17:49;13.10;99.90
24152;DHT22;12311;50.866;4.332;2023-05-14T01:20:16;13.10;99.90
24152;DHT22;12311;50.866;4.332;2023-05-14T01:22:41;13.20;99.90
24152;DHT22;12311;50.866;4.332;2023-05-14T01:25:07;13.10;99.90
24152;DHT22;12311;50.866;4.332;2023-05-14T01:30:34;13.10;99.90
24152;DHT22;12311;50.866;4.332;2023-05-14T01:33:08;13.10;99.90
24152;DHT22;12311;50.866;4.332;2023-05-14T01:35:34;13.10;99.90
24152;DHT22;12311;50.866;4.332;2023-05-14T01:38:02;13.20;99.90
24152;DHT22;12311;50.866;4.332;2023-05-14T01:40:29;13.30;99.90
24152;DHT22;12311;50.866;4.332;2023-05-14T01:42:56;13.20;99.90
24152;DHT22;12311;50.866;4.332;2023-05-14T01:45:23;13.20;99.90
24152;DHT22;12311;50.866;4.332;2023-05-14T01:47:49;13.10;99.90
24152;DHT22;12311;50.866;4.332;2023-05-14T01:50:15;13.10;99.90
24152;DHT22;12311;50.866;4.332;2023-05-14T01:52:41;13.10;99.90
24152;DHT22;12311;50.866;4.332;2023-05-14T01:55:07;13.10;99.90
24152;DHT22;12311;50.866;4.332;2023-05-14T01:57:33;13.10;99.90
24152;DHT22;12311;50.866;4.332;2023-05-14T01:59:59;13.00;99.90
24152;DHT22;12311;50.866;4.332;2023-05-14T02:02:24;13.00;99.90
24152;DHT22;12311;50.866;4.332;2023-05-14T02:04:50;13.10;99.90
24152;DHT22;12311;50.866;4.332;2023-05-14T02:07:16;13.10;99.90
24152;DHT22;12311;50.866;4.332;2023-05-14T02:09:42;13.10;99.90
24152;DHT22;12311;50.866;4.332;2023-05-14T02:12:08;13.10;99.90
24152;DHT22;12311;50.866;4.332;2023-05-14T02:14:35;13.10;99.90
24152;DHT22;12311;50.866;4.332;2023-05-14T02:17:01;13.00;99.90
24152;DHT22;12311;50.866;4.332;2023-05-14T02:19:28;13.00;99.90
24152;DHT22;12311;50.866;4.332;2023-05-14T02:21:54;12.90;99.90
24152;DHT22;12311;50.866;4.332;2023-05-14T02:24:19;13.10;99.90
24152;DHT22;12311;50.866;4.332;2023-05-14T02:26:46;13.20;99.90
24152;DHT22;12311;50.866;4.332;2023-05-14T02:29:11;13.10;99.90
24152;DHT22;12311;50.866;4.332;2023-05-14T02:31:37;13.20;99.90
24152;DHT22;12311;50.866;4.332;2023-05-14T02:34:04;13.10;99.90
24152;DHT22;12311;50.866;4.332;2023-05-14T02:36:31;13.10;99.90
24152;DHT22;12311;50.866;4.332;2023-05-14T02:38:58;13.20;99.90
24152;DHT22;12311;50.866;4.332;2023-05-14T02:41:24;13.10;99.90
24152;DHT22;12311;50.866;4.332;2023-05-14T02:43:49;13.10;99.90
24152;DHT22;12311;50.866;4.332;2023-05-14T02:46:15;13.10;99.90
24152;DHT22;12311;50.866;4.332;2023-05-14T02:48:40;13.00;99.90
24152;DHT22;12311;50.866;4.332;2023-05-14T02:51:06;13.10;99.90
24152;DHT22;12311;50.866;4.332;2023-05-14T02:53:32;13.10;99.90
24152;DHT22;12311;50.866;4.332;2023-05-14T02:55:58;13.20;99.90
24152;DHT22;12311;50.866;4.332;2023-05-14T02:58:24;13.10;99.90
24152;DHT22;12311;50.866;4.332;2023-05-14T03:00:50;13.10;99.90
24152;DHT22;12311;50.866;4.332;2023-05-14T03:03:17;13.10;99.90
24152;DHT22;12311;50.866;4.332;2023-05-14T03:05:43;13.20;99.90
24152;DHT22;12311;50.866;4.332;2023-05-14T03:08:08;13.20;99.90
24152;DHT22;12311;50.866;4.332;2023-05-14T03:10:34;13.20;99.90
24152;DHT22;12311;50.866;4.332;2023-05-14T03:13:00;13.10;99.90
24152;DHT22;12311;50.866;4.332;2023-05-14T03:15:25;13.10;99.90
24152;DHT22;12311;50.866;4.332;2023-05-14T03:17:51;13.20;99.90
24152;DHT22;12311;50.866;4.332;2023-05-14T03:20:17;13.20;99.90
24152;DHT22;12311;50.866;4.332;2023-05-14T03:22:42;13.30;99.90
24152;DHT22;12311;50.866;4.332;2023-05-14T03:25:08;13.30;99.90
24152;DHT22;12311;50.866;4.332;2023-05-14T03:27:34;13.20;99.90
24152;DHT22;12311;50.866;4.332;2023-05-14T03:30:00;13.20;99.90
24152;DHT22;12311;50.866;4.332;2023-05-14T03:32:25;13.30;99.90
24152;DHT22;12311;50.866;4.332;2023-05-14T03:34:51;13.30;99.90
24152;DHT22;12311;50.866;4.332;2023-05-14T03:37:17;13.20;99.90
24152;DHT22;12311;50.866;4.332;2023-05-14T03:39:43;13.20;99.90
24152;DHT22;12311;50.866;4.332;2023-05-14T03:42:08;13.30;99.90
24152;DHT22;12311;50.866;4.332;2023-05-14T03:44:34;13.40;99.90
24152;DHT22;12311;50.866;4.332;2023-05-14T03:47:00;13.30;99.90
24152;DHT22;12311;50.866;4.332;2023-05-14T03:49:25;13.20;99.90
24152;DHT22;12311;50.866;4.332;2023-05-14T03:51:51;13.30;99.90
24152;DHT22;12311;50.866;4.332;2023-05-14T03:54:17;13.30;99.90
24152;DHT22;12311;50.866;4.332;2023-05-14T03:56:42;13.10;99.90
24152;DHT22;12311;50.866;4.332;2023-05-14T03:59:08;13.30;99.90
24152;DHT22;12311;50.866;4.332;2023-05-14T04:01:34;13.20;99.90
24152;DHT22;12311;50.866;4.332;2023-05-14T04:03:59;13.20;99.90
24152;DHT22;12311;50.866;4.332;2023-05-14T04:06:25;13.30;99.90
24152;DHT22;12311;50.866;4.332;2023-05-14T04:08:50;13.20;99.90
24152;DHT22;12311;50.866;4.332;2023-05-14T04:11:16;13.20;99.90
24152;DHT22;12311;50.866;4.332;2023-05-14T04:13:42;13.20;99.90
24152;DHT22;12311;50.866;4.332;2023-05-14T04:16:07;13.20;99.90
24152;DHT22;12311;50.866;4.332;2023-05-14T04:18:33;13.10;99.90
24152;DHT22;12311;50.866;4.332;2023-05-14T04:21:01;13.10;99.90
24152;DHT22;12311;50.866;4.332;2023-05-14T04:23:27;13.20;99.90
24152;DHT22;12311;50.866;4.332;2023-05-14T04:25:52;13.30;99.90
24152;DHT22;12311;50.866;4.332;2023-05-14T04:28:18;13.30;99.90
24152;DHT22;12311;50.866;4.332;2023-05-14T04:30:44;13.30;99.90
24152;DHT22;12311;50.866;4.332;2023-05-14T04:33:10;13.30;99.90
24152;DHT22;12311;50.866;4.332;2023-05-14T04:35:36;13.30;99.90
24152;DHT22;12311;50.866;4.332;2023-05-14T04:38:01;13.30;99.90
24152;DHT22;12311;50.866;4.332;2023-05-14T04:40:27;13.40;99.90
24152;DHT22;12311;50.866;4.332;2023-05-14T04:42:53;13.30;99.90
24152;DHT22;12311;50.866;4.332;2023-05-14T04:45:19;13.40;99.90
24152;DHT22;12311;50.866;4.332;2023-05-14T04:47:45;13.30;99.90
24152;DHT22;12311;50.866;4.332;2023-05-14T04:50:11;13.30;99.90
24152;DHT22;12311;50.866;4.332;2023-05-14T04:52:37;13.30;99.90
24152;DHT22;12311;50.866;4.332;2023-05-14T04:55:03;13.40;99.90
24152;DHT22;12311;50.866;4.332;2023-05-14T04:57:29;13.40;99.90
24152;DHT22;12311;50.866;4.332;2023-05-14T04:59:55;13.40;99.90
24152;DHT22;12311;50.866;4.332;2023-05-14T05:02:20;13.30;99.90
24152;DHT22;12311;50.866;4.332;2023-05-14T05:04:46;13.30;99.90
24152;DHT22;12311;50.866;4.332;2023-05-14T05:07:12;13.40;99.90
24152;DHT22;12311;50.866;4.332;2023-05-14T05:09:39;13.30;99.90
24152;DHT22;12311;50.866;4.332;2023-05-14T05:12:05;13.30;99.90
24152;DHT22;12311;50.866;4.332;2023-05-14T05:14:31;13.40;99.90
24152;DHT22;12311;50.866;4.332;2023-05-14T05:16:56;13.40;99.90
24152;DHT22;12311;50.866;4.332;2023-05-14T05:19:22;13.40;99.90
24152;DHT22;12311;50.866;4.332;2023-05-14T05:21:48;13.40;99.90
24152;DHT22;12311;50.866;4.332;2023-05-14T05:24:13;13.50;99.90
24152;DHT22;12311;50.866;4.332;2023-05-14T05:26:39;13.50;99.90
24152;DHT22;12311;50.866;4.332;2023-05-14T05:29:06;13.60;99.90
24152;DHT22;12311;50.866;4.332;2023-05-14T05:31:31;13.50;99.90
24152;DHT22;12311;50.866;4.332;2023-05-14T05:33:58;13.50;99.90
24152;DHT22;12311;50.866;4.332;2023-05-14T05:36:24;13.40;99.90
24152;DHT22;12311;50.866;4.332;2023-05-14T05:38:50;13.40;99.90
24152;DHT22;12311;50.866;4.332;2023-05-14T05:41:15;13.50;99.90
24152;DHT22;12311;50.866;4.332;2023-05-14T05:43:41;13.50;99.90
24152;DHT22;12311;50.866;4.332;2023-05-14T05:46:07;13.50;99.90
24152;DHT22;12311;50.866;4.332;2023-05-14T05:48:33;13.50;99.90
24152;DHT22;12311;50.866;4.332;2023-05-14T05:50:58;13.60;99.90
24152;DHT22;12311;50.866;4.332;2023-05-14T05:53:24;13.70;99.90
24152;DHT22;12311;50.866;4.332;2023-05-14T05:55:50;13.80;99.90
24152;DHT22;12311;50.866;4.332;2023-05-14T05:58:19;13.70;99.90
24152;DHT22;12311;50.866;4.332;2023-05-14T06:00:45;13.70;99.90
24152;DHT22;12311;50.866;4.332;2023-05-14T06:03:11;13.60;99.90
24152;DHT22;12311;50.866;4.332;2023-05-14T06:05:37;13.70;99.90
24152;DHT22;12311;50.866;4.332;2023-05-14T06:08:04;13.70;99.90
24152;DHT22;12311;50.866;4.332;2023-05-14T06:10:29;13.60;99.90
24152;DHT22;12311;50.866;4.332;2023-05-14T06:12:55;13.60;99.90
24152;DHT22;12311;50.866;4.332;2023-05-14T06:15:21;13.40;99.90
24152;DHT22;12311;50.866;4.332;2023-05-14T06:17:47;13.30;99.90
24152;DHT22;12311;50.866;4.332;2023-05-14T06:20:13;13.30;99.90
24152;DHT22;12311;50.866;4.332;2023-05-14T06:22:39;13.20;99.90
24152;DHT22;12311;50.866;4.332;2023-05-14T06:25:05;13.40;99.90
24152;DHT22;12311;50.866;4.332;2023-05-14T06:27:30;13.50;99.90
24152;DHT22;12311;50.866;4.332;2023-05-14T06:29:56;13.60;99.90
24152;DHT22;12311;50.866;4.332;2023-05-14T06:32:22;13.70;99.90
24152;DHT22;12311;50.866;4.332;2023-05-14T06:34:48;13.70;99.90
24152;DHT22;12311;50.866;4.332;2023-05-14T06:37:13;13.80;99.90
24152;DHT22;12311;50.866;4.332;2023-05-14T06:39:39;14.00;99.90
24152;DHT22;12311;50.866;4.332;2023-05-14T06:42:08;14.00;99.90
24152;DHT22;12311;50.866;4.332;2023-05-14T06:44:34;14.20;99.90
24152;DHT22;12311;50.866;4.332;2023-05-14T06:47:00;14.10;99.90
24152;DHT22;12311;50.866;4.332;2023-05-14T06:49:26;14.10;99.90
24152;DHT22;12311;50.866;4.332;2023-05-14T06:51:52;14.00;99.90
24152;DHT22;12311;50.866;4.332;2023-05-14T06:54:18;14.00;99.90
24152;DHT22;12311;50.866;4.332;2023-05-14T06:56:45;13.90;99.90
24152;DHT22;12311;50.866;4.332;2023-05-14T06:59:10;14.00;99.90
24152;DHT22;12311;50.866;4.332;2023-05-14T07:01:36;14.10;99.90
24152;DHT22;12311;50.866;4.332;2023-05-14T07:04:02;14.10;99.90
24152;DHT22;12311;50.866;4.332;2023-05-14T07:06:27;14.10;99.90
24152;DHT22;12311;50.866;4.332;2023-05-14T07:08:53;14.10;99.90
24152;DHT22;12311;50.866;4.332;2023-05-14T07:11:19;13.90;99.90
24152;DHT22;12311;50.866;4.332;2023-05-14T07:13:46;14.00;99.90
24152;DHT22;12311;50.866;4.332;2023-05-14T07:16:12;14.10;99.90
24152;DHT22;12311;50.866;4.332;2023-05-14T07:18:37;14.00;99.90
24152;DHT22;12311;50.866;4.332;2023-05-14T07:21:03;14.20;99.90
24152;DHT22;12311;50.866;4.332;2023-05-14T07:23:31;14.20;99.90
24152;DHT22;12311;50.866;4.332;2023-05-14T07:25:57;14.10;99.90
24152;DHT22;12311;50.866;4.332;2023-05-14T07:28:23;14.30;99.90
24152;DHT22;12311;50.866;4.332;2023-05-14T07:30:48;14.40;99.90
24152;DHT22;12311;50.866;4.332;2023-05-14T07:33:14;14.40;99.90
24152;DHT22;12311;50.866;4.332;2023-05-14T07:35:40;14.50;99.90
24152;DHT22;12311;50.866;4.332;2023-05-14T07:38:05;14.40;99.90
24152;DHT22;12311;50.866;4.332;2023-05-14T07:40:31;14.40;99.90
24152;DHT22;12311;50.866;4.332;2023-05-14T07:42:57;14.40;99.90
24152;DHT22;12311;50.866;4.332;2023-05-14T07:45:22;14.50;99.90
24152;DHT22;12311;50.866;4.332;2023-05-14T07:47:48;14.50;99.90
24152;DHT22;12311;50.866;4.332;2023-05-14T07:50:17;14.60;99.90
24152;DHT22;12311;50.866;4.332;2023-05-14T07:52:43;14.60;99.90
24152;DHT22;12311;50.866;4.332;2023-05-14T07:55:09;14.60;99.90
24152;DHT22;12311;50.866;4.332;2023-05-14T07:57:35;14.70;99.90
24152;DHT22;12311;50.866;4.332;2023-05-14T08:00:02;14.70;99.90
24152;DHT22;12311;50.866;4.332;2023-05-14T08:02:28;14.70;99.90
24152;DHT22;12311;50.866;4.332;2023-05-14T08:04:54;14.70;99.90
24152;DHT22;12311;50.866;4.332;2023-05-14T08:07:20;14.60;99.90
24152;DHT22;12311;50.866;4.332;2023-05-14T08:09:46;14.60;99.90
24152;DHT22;12311;50.866;4.332;2023-05-14T08:12:11;14.60;99.90
24152;DHT22;12311;50.866;4.332;2023-05-14T08:14:37;14.70;99.90
24152;DHT22;12311;50.866;4.332;2023-05-14T08:17:03;14.70;99.90
24152;DHT22;12311;50.866;4.332;2023-05-14T08:19:29;14.70;99.90
24152;DHT22;12311;50.866;4.332;2023-05-14T08:21:54;14.80;99.90
24152;DHT22;12311;50.866;4.332;2023-05-14T08:24:20;14.90;99.90
24152;DHT22;12311;50.866;4.332;2023-05-14T08:26:46;15.00;99.90
24152;DHT22;12311;50.866;4.332;2023-05-14T08:29:12;15.20;99.90
24152;DHT22;12311;50.866;4.332;2023-05-14T08:31:37;15.30;99.90
24152;DHT22;12311;50.866;4.332;2023-05-14T08:34:03;15.30;99.90
24152;DHT22;12311;50.866;4.332;2023-05-14T08:36:29;15.50;99.90
24152;DHT22;12311;50.866;4.332;2023-05-14T08:38:55;15.60;99.90
24152;DHT22;12311;50.866;4.332;2023-05-14T08:41:21;15.70;99.90
24152;DHT22;12311;50.866;4.332;2023-05-14T08:44:06;15.70;99.90
24152;DHT22;12311;50.866;4.332;2023-05-14T08:46:37;15.80;99.90
24152;DHT22;12311;50.866;4.332;2023-05-14T08:51:43;16.30;99.90
24152;DHT22;12311;50.866;4.332;2023-05-14T08:54:12;16.60;99.90
24152;DHT22;12311;50.866;4.332;2023-05-14T08:56:41;16.90;99.90
24152;DHT22;12311;50.866;4.332;2023-05-14T08:59:08;17.00;99.90
24152;DHT22;12311;50.866;4.332;2023-05-14T09:01:33;16.90;99.90
24152;DHT22;12311;50.866;4.332;2023-05-14T09:04:00;16.80;99.90
24152;DHT22;12311;50.866;4.332;2023-05-14T09:06:31;16.80;99.90
24152;DHT22;12311;50.866;4.332;2023-05-14T09:08:57;17.00;99.90
24152;DHT22;12311;50.866;4.332;2023-05-14T09:11:23;17.10;99.90
24152;DHT22;12311;50.866;4.332;2023-05-14T09:13:49;17.20;99.90
24152;DHT22;12311;50.866;4.332;2023-05-14T09:16:15;17.20;99.90
24152;DHT22;12311;50.866;4.332;2023-05-14T09:18:43;17.40;99.90
24152;DHT22;12311;50.866;4.332;2023-05-14T09:21:12;17.50;99.90
24152;DHT22;12311;50.866;4.332;2023-05-14T09:23:41;17.60;99.90
24152;DHT22;12311;50.866;4.332;2023-05-14T09:26:09;17.80;99.90
24152;DHT22;12311;50.866;4.332;2023-05-14T09:28:38;17.80;99.90
24152;DHT22;12311;50.866;4.332;2023-05-14T09:31:03;17.80;99.90
24152;DHT22;12311;50.866;4.332;2023-05-14T09:33:29;18.20;99.90
24152;DHT22;12311;50.866;4.332;2023-05-14T09:35:58;18.60;99.90
24152;DHT22;12311;50.866;4.332;2023-05-14T09:38:28;18.70;99.90
24152;DHT22;12311;50.866;4.332;2023-05-14T09:40:54;18.70;99.90
24152;DHT22;12311;50.866;4.332;2023-05-14T09:43:20;18.70;99.90
24152;DHT22;12311;50.866;4.332;2023-05-14T09:45:46;18.90;99.90
24152;DHT22;12311;50.866;4.332;2023-05-14T09:48:12;18.70;99.90
24152;DHT22;12311;50.866;4.332;2023-05-14T09:50:42;18.80;99.90
24152;DHT22;12311;50.866;4.332;2023-05-14T09:53:08;18.80;99.90
24152;DHT22;12311;50.866;4.332;2023-05-14T09:55:36;19.20;99.90
24152;DHT22;12311;50.866;4.332;2023-05-14T09:58:02;19.50;99.90
24152;DHT22;12311;50.866;4.332;2023-05-14T10:00:33;19.80;99.90
24152;DHT22;12311;50.866;4.332;2023-05-14T10:03:05;19.80;99.90
24152;DHT22;12311;50.866;4.332;2023-05-14T10:05:35;20.00;99.90
24152;DHT22;12311;50.866;4.332;2023-05-14T10:08:18;19.70;99.90
24152;DHT22;12311;50.866;4.332;2023-05-14T10:10:44;19.30;99.90
24152;DHT22;12311;50.866;4.332;2023-05-14T10:13:13;19.10;99.90
24152;DHT22;12311;50.866;4.332;2023-05-14T10:15:51;19.00;99.90
24152;DHT22;12311;50.866;4.332;2023-05-14T10:18:18;18.90;99.90
24152;DHT22;12311;50.866;4.332;2023-05-14T10:21:03;19.00;99.90
24152;DHT22;12311;50.866;4.332;2023-05-14T10:23:30;19.40;99.90
24152;DHT22;12311;50.866;4.332;2023-05-14T10:25:57;19.80;99.90
24152;DHT22;12311;50.866;4.332;2023-05-14T10:28:24;19.60;99.90
24152;DHT22;12311;50.866;4.332;2023-05-14T10:30:50;19.80;99.90
24152;DHT22;12311;50.866;4.332;2023-05-14T10:33:16;20.10;99.90
24152;DHT22;12311;50.866;4.332;2023-05-14T10:35:56;21.10;99.90
24152;DHT22;12311;50.866;4.332;2023-05-14T10:38:40;21.50;99.90
24152;DHT22;12311;50.866;4.332;2023-05-14T10:41:09;21.40;99.90
24152;DHT22;12311;50.866;4.332;2023-05-14T10:43:37;20.90;99.90
24152;DHT22;12311;50.866;4.332;2023-05-14T10:46:04;20.30;99.90
24152;DHT22;12311;50.866;4.332;2023-05-14T10:48:30;20.30;99.90
24152;DHT22;12311;50.866;4.332;2023-05-14T10:50:57;20.40;99.90
24152;DHT22;12311;50.866;4.332;2023-05-14T10:53:36;20.70;99.90
24152;DHT22;12311;50.866;4.332;2023-05-14T10:56:07;21.00;99.90
24152;DHT22;12311;50.866;4.332;2023-05-14T10:58:38;21.00;99.90
24152;DHT22;12311;50.866;4.332;2023-05-14T11:01:08;21.20;99.90
24152;DHT22;12311;50.866;4.332;2023-05-14T11:03:41;21.30;99.90
24152;DHT22;12311;50.866;4.332;2023-05-14T11:06:08;21.80;99.90
24152;DHT22;12311;50.866;4.332;2023-05-14T11:08:35;22.50;99.90
24152;DHT22;12311;50.866;4.332;2023-05-14T11:11:01;22.70;99.90
24152;DHT22;12311;50.866;4.332;2023-05-14T11:13:27;22.50;99.90
24152;DHT22;12311;50.866;4.332;2023-05-14T11:15:54;22.70;99.90
24152;DHT22;12311;50.866;4.332;2023-05-14T11:18:30;22.70;99.90
24152;DHT22;12311;50.866;4.332;2023-05-14T11:21:01;23.00;99.90
24152;DHT22;12311;50.866;4.332;2023-05-14T11:23:27;23.30;99.90
24152;DHT22;12311;50.866;4.332;2023-05-14T11:25:54;23.30;99.90
24152;DHT22;12311;50.866;4.332;2023-05-14T11:28:24;23.10;99.90
24152;DHT22;12311;50.866;4.332;2023-05-14T11:30:51;23.50;99.90
24152;DHT22;12311;50.866;4.332;2023-05-14T11:33:18;23.70;99.90
24152;DHT22;12311;50.866;4.332;2023-05-14T11:35:47;23.90;99.90
24152;DHT22;12311;50.866;4.332;2023-05-14T11:38:17;24.10;99.90
24152;DHT22;12311;50.866;4.332;2023-05-14T11:40:57;24.30;99.90
24152;DHT22;12311;50.866;4.332;2023-05-14T11:43:24;23.50;99.90
24152;DHT22;12311;50.866;4.332;2023-05-14T11:45:53;23.40;99.90
24152;DHT22;12311;50.866;4.332;2023-05-14T11:48:20;23.60;99.90
24152;DHT22;12311;50.866;4.332;2023-05-14T11:50:50;23.90;99.90
24152;DHT22;12311;50.866;4.332;2023-05-14T11:53:24;24.50;99.90
24152;DHT22;12311;50.866;4.332;2023-05-14T11:55:52;24.60;99.90
24152;DHT22;12311;50.866;4.332;2023-05-14T11:58:19;24.40;99.90
24152;DHT22;12311;50.866;4.332;2023-05-14T12:00:45;24.80;99.90
24152;DHT22;12311;50.866;4.332;2023-05-14T12:03:12;24.80;99.90
24152;DHT22;12311;50.866;4.332;2023-05-14T12:05:38;24.60;99.90
24152;DHT22;12311;50.866;4.332;2023-05-14T12:08:21;24.20;99.90
24152;DHT22;12311;50.866;4.332;2023-05-14T12:10:47;23.90;99.90
24152;DHT22;12311;50.866;4.332;2023-05-14T12:13:16;23.80;99.90
24152;DHT22;12311;50.866;4.332;2023-05-14T12:16:01;23.80;99.90
24152;DHT22;12311;50.866;4.332;2023-05-14T12:18:31;24.50;99.90
24152;DHT22;12311;50.866;4.332;2023-05-14T12:21:03;24.60;99.90
24152;DHT22;12311;50.866;4.332;2023-05-14T12:23:30;24.40;99.90
24152;DHT22;12311;50.866;4.332;2023-05-14T12:26:07;25.00;99.90
24152;DHT22;12311;50.866;4.332;2023-05-14T12:28:33;25.20;99.90
24152;DHT22;12311;50.866;4.332;2023-05-14T12:30:59;26.10;99.90
24152;DHT22;12311;50.866;4.332;2023-05-14T12:33:25;26.70;99.90
24152;DHT22;12311;50.866;4.332;2023-05-14T12:35:54;26.50;99.90
24152;DHT22;12311;50.866;4.332;2023-05-14T12:38:26;26.60;99.90
24152;DHT22;12311;50.866;4.332;2023-05-14T12:40:52;27.40;99.90
24152;DHT22;12311;50.866;4.332;2023-05-14T12:43:19;27.00;99.90
24152;DHT22;12311;50.866;4.332;2023-05-14T12:45:44;27.30;99.90
24152;DHT22;12311;50.866;4.332;2023-05-14T12:48:10;26.90;99.90
24152;DHT22;12311;50.866;4.332;2023-05-14T12:50:37;26.60;99.90
24152;DHT22;12311;50.866;4.332;2023-05-14T12:53:03;26.40;99.90
24152;DHT22;12311;50.866;4.332;2023-05-14T12:55:30;27.00;99.90
24152;DHT22;12311;50.866;4.332;2023-05-14T12:57:55;26.30;99.90
24152;DHT22;12311;50.866;4.332;2023-05-14T13:00:22;27.00;99.90
24152;DHT22;12311;50.866;4.332;2023-05-14T13:02:47;27.60;99.90
24152;DHT22;12311;50.866;4.332;2023-05-14T13:05:13;28.80;99.90
24152;DHT22;12311;50.866;4.332;2023-05-14T13:07:39;28.90;99.90
24152;DHT22;12311;50.866;4.332;2023-05-14T13:10:06;28.70;99.90
24152;DHT22;12311;50.866;4.332;2023-05-14T13:12:32;28.60;99.90
24152;DHT22;12311;50.866;4.332;2023-05-14T13:14:57;28.70;99.90
24152;DHT22;12311;50.866;4.332;2023-05-14T13:17:23;29.40;98.10
24152;DHT22;12311;50.866;4.332;2023-05-14T13:19:49;28.90;97.70
24152;DHT22;12311;50.866;4.332;2023-05-14T13:22:14;28.90;97.60
24152;DHT22;12311;50.866;4.332;2023-05-14T13:24:41;28.90;98.20
24152;DHT22;12311;50.866;4.332;2023-05-14T13:27:07;29.30;96.30
24152;DHT22;12311;50.866;4.332;2023-05-14T13:29:32;29.40;96.60
24152;DHT22;12311;50.866;4.332;2023-05-14T13:31:58;30.10;96.50
24152;DHT22;12311;50.866;4.332;2023-05-14T13:34:24;29.40;97.50
24152;DHT22;12311;50.866;4.332;2023-05-14T13:36:49;29.00;98.70
24152;DHT22;12311;50.866;4.332;2023-05-14T13:39:15;29.00;98.60
24152;DHT22;12311;50.866;4.332;2023-05-14T13:41:41;29.60;98.30
24152;DHT22;12311;50.866;4.332;2023-05-14T13:44:06;30.10;95.70
24152;DHT22;12311;50.866;4.332;2023-05-14T13:46:32;28.90;97.70
24152;DHT22;12311;50.866;4.332;2023-05-14T13:48:58;28.80;97.10
24152;DHT22;12311;50.866;4.332;2023-05-14T13:51:24;29.10;97.80
24152;DHT22;12311;50.866;4.332;2023-05-14T13:53:49;28.40;99.90
24152;DHT22;12311;50.866;4.332;2023-05-14T13:56:15;29.00;99.40
24152;DHT22;12311;50.866;4.332;2023-05-14T13:58:41;29.10;98.30
24152;DHT22;12311;50.866;4.332;2023-05-14T14:01:06;29.20;98.70
24152;DHT22;12311;50.866;4.332;2023-05-14T14:03:32;29.70;97.90
24152;DHT22;12311;50.866;4.332;2023-05-14T14:05:58;29.00;97.20
24152;DHT22;12311;50.866;4.332;2023-05-14T14:08:23;28.30;99.00
24152;DHT22;12311;50.866;4.332;2023-05-14T14:10:49;28.40;97.40
24152;DHT22;12311;50.866;4.332;2023-05-14T14:13:15;28.20;98.70
24152;DHT22;12311;50.866;4.332;2023-05-14T14:15:41;28.00;98.70
24152;DHT22;12311;50.866;4.332;2023-05-14T14:18:07;27.60;98.90
24152;DHT22;12311;50.866;4.332;2023-05-14T14:20:34;27.40;99.90
24152;DHT22;12311;50.866;4.332;2023-05-14T14:22:59;27.70;99.90
24152;DHT22;12311;50.866;4.332;2023-05-14T14:25:25;28.10;99.90
24152;DHT22;12311;50.866;4.332;2023-05-14T14:27:51;28.20;99.10
24152;DHT22;12311;50.866;4.332;2023-05-14T14:30:16;28.00;98.80
24152;DHT22;12311;50.866;4.332;2023-05-14T14:32:44;27.50;99.40
24152;DHT22;12311;50.866;4.332;2023-05-14T14:35:12;27.10;99.90
24152;DHT22;12311;50.866;4.332;2023-05-14T14:37:37;26.90;99.90
24152;DHT22;12311;50.866;4.332;2023-05-14T14:40:04;26.50;99.90
24152;DHT22;12311;50.866;4.332;2023-05-14T14:42:33;26.40;99.90
24152;DHT22;12311;50.866;4.332;2023-05-14T14:44:58;26.20;99.90
24152;DHT22;12311;50.866;4.332;2023-05-14T14:47:24;25.80;99.90
24152;DHT22;12311;50.866;4.332;2023-05-14T14:49:50;25.50;99.90
24152;DHT22;12311;50.866;4.332;2023-05-14T14:52:15;25.20;99.90
24152;DHT22;12311;50.866;4.332;2023-05-14T14:54:41;24.80;99.90
24152;DHT22;12311;50.866;4.332;2023-05-14T14:57:07;24.40;99.90
24152;DHT22;12311;50.866;4.332;2023-05-14T14:59:34;24.60;99.90
24152;DHT22;12311;50.866;4.332;2023-05-14T15:01:59;25.20;99.90
24152;DHT22;12311;50.866;4.332;2023-05-14T15:04:25;25.00;99.90
24152;DHT22;12311;50.866;4.332;2023-05-14T15:06:51;24.90;99.90
24152;DHT22;12311;50.866;4.332;2023-05-14T15:09:17;24.70;99.90
24152;DHT22;12311;50.866;4.332;2023-05-14T15:11:43;24.90;99.90
24152;DHT22;12311;50.866;4.332;2023-05-14T15:14:09;24.90;99.90
24152;DHT22;12311;50.866;4.332;2023-05-14T15:16:35;24.70;99.90
24152;DHT22;12311;50.866;4.332;2023-05-14T15:19:00;24.60;99.90
24152;DHT22;12311;50.866;4.332;2023-05-14T15:21:26;23.80;99.90
24152;DHT22;12311;50.866;4.332;2023-05-14T15:23:51;23.40;99.90
24152;DHT22;12311;50.866;4.332;2023-05-14T15:26:17;23.30;99.90
24152;DHT22;12311;50.866;4.332;2023-05-14T15:28:43;23.30;99.90
24152;DHT22;12311;50.866;4.332;2023-05-14T15:31:09;23.50;99.90
24152;DHT22;12311;50.866;4.332;2023-05-14T15:33:35;23.70;99.90
24152;DHT22;12311;50.866;4.332;2023-05-14T15:36:00;23.70;99.90
24152;DHT22;12311;50.866;4.332;2023-05-14T15:38:26;23.00;99.90